createdAt,value
2018-06-18T00:02:13.168Z,7.60
2018-06-18T00:04:42.089Z,7.00
2018-06-18T00:07:11.025Z,6.87
2018-06-18T00:09:39.902Z,8.90
2018-06-18T00:12:09.459Z,7.20
2018-06-18T00:14:38.583Z,7.00
2018-06-18T00:17:08.128Z,7.90
2018-06-18T00:19:37.376Z,6.53
2018-06-18T00:22:08.575Z,6.73
2018-06-18T00:24:37.811Z,6.60
2018-06-18T00:27:07.276Z,6.53
2018-06-18T00:29:36.143Z,7.83
2018-06-18T00:32:05.616Z,6.97
2018-06-18T00:34:35.144Z,7.33
2018-06-18T00:37:04.096Z,8.27
2018-06-18T00:39:33.715Z,7.50
2018-06-18T00:42:02.989Z,7.43
2018-06-18T00:44:32.237Z,7.33
2018-06-18T00:47:01.630Z,7.50
2018-06-18T00:49:30.936Z,7.80
2018-06-18T00:52:00.199Z,7.40
2018-06-18T00:54:30.000Z,7.90
2018-06-18T00:56:59.248Z,8.80
2018-06-18T00:59:28.524Z,8.00
2018-06-18T01:01:57.807Z,7.67
2018-06-18T01:04:27.210Z,8.00
2018-06-18T01:06:56.259Z,8.30
2018-06-18T01:09:25.763Z,8.70
2018-06-18T01:11:54.936Z,9.20
2018-06-18T01:14:24.764Z,8.23
2018-06-18T01:16:54.469Z,8.13
2018-06-18T01:19:24.089Z,8.70
2018-06-18T01:21:53.040Z,8.13
2018-06-18T01:24:38.625Z,8.23
2018-06-18T01:27:07.914Z,9.27
2018-06-18T01:29:36.865Z,8.80
2018-06-18T01:32:06.129Z,8.67
2018-06-18T01:34:35.021Z,7.40
2018-06-18T01:37:04.818Z,9.10
2018-06-18T01:39:33.827Z,7.93
2018-06-18T01:42:02.763Z,8.57
2018-06-18T01:44:32.187Z,9.70
2018-06-18T01:47:01.124Z,10.47
2018-06-18T01:49:30.754Z,10.10
2018-06-18T01:52:00.046Z,10.13
2018-06-18T01:54:29.454Z,9.87
2018-06-18T01:56:59.104Z,11.23
2018-06-18T01:59:27.973Z,11.50
2018-06-18T02:01:58.026Z,10.37
2018-06-18T02:04:27.947Z,11.00
2018-06-18T02:06:57.511Z,10.37
2018-06-18T02:09:26.598Z,11.03
2018-06-18T02:11:55.875Z,11.47
2018-06-18T02:14:24.810Z,13.20
2018-06-18T02:16:54.841Z,11.13
2018-06-18T02:19:23.814Z,10.20
2018-06-18T02:21:52.768Z,14.70
2018-06-18T02:24:22.100Z,12.17
2018-06-18T02:26:56.590Z,12.27
2018-06-18T02:29:30.925Z,11.73
2018-06-18T02:32:08.325Z,12.27
2018-06-18T02:34:42.423Z,11.93
2018-06-18T02:37:16.859Z,9.83
2018-06-18T02:40:52.451Z,12.00
2018-06-18T02:43:22.312Z,11.80
2018-06-18T02:45:51.617Z,12.27
2018-06-18T02:48:20.517Z,11.80
2018-06-18T02:50:49.444Z,12.13
2018-06-18T02:53:19.057Z,11.57
2018-06-18T02:55:49.477Z,12.20
2018-06-18T02:58:19.928Z,11.60
2018-06-18T03:00:49.598Z,10.60
2018-06-18T03:03:19.050Z,12.67
2018-06-18T03:05:48.363Z,13.00
2018-06-18T03:08:18.711Z,12.93
2018-06-18T03:10:47.673Z,12.17
2018-06-18T03:13:16.785Z,10.90
2018-06-18T03:15:46.179Z,11.20
2018-06-18T03:18:20.197Z,12.43
2018-06-18T03:20:54.320Z,11.43
2018-06-18T03:23:28.700Z,11.00
2018-06-18T03:26:02.742Z,12.70
2018-06-18T03:28:37.401Z,12.67
2018-06-18T03:31:06.799Z,11.90
2018-06-18T03:33:36.714Z,12.53
2018-06-18T03:36:07.228Z,11.23
2018-06-18T03:38:36.238Z,12.20
2018-06-18T03:41:05.478Z,12.37
2018-06-18T03:43:37.097Z,12.60
2018-06-18T03:46:06.929Z,12.17
2018-06-18T03:48:35.833Z,12.33
2018-06-18T03:51:04.783Z,11.50
2018-06-18T03:53:34.007Z,11.73
2018-06-18T03:56:03.501Z,11.40
2018-06-18T03:58:32.881Z,12.10
2018-06-18T04:02:15.651Z,11.27
2018-06-18T04:04:53.952Z,11.57
2018-06-18T04:07:29.176Z,12.00
2018-06-18T04:10:04.093Z,11.40
2018-06-18T04:12:33.647Z,12.20
2018-06-18T04:15:03.005Z,11.60
2018-06-18T04:17:32.199Z,11.17
2018-06-18T04:20:01.202Z,10.10
2018-06-18T04:22:35.996Z,11.30
2018-06-18T04:25:05.000Z,10.63
2018-06-18T04:27:34.441Z,10.93
2018-06-18T04:30:03.824Z,9.47
2018-06-18T04:32:33.120Z,12.40
2018-06-18T04:35:05.529Z,11.80
2018-06-18T04:37:35.666Z,12.13
2018-06-18T04:40:05.536Z,10.97
2018-06-18T04:42:39.939Z,13.00
2018-06-18T04:45:14.274Z,13.57
2018-06-18T04:47:48.988Z,14.53
2018-06-18T04:50:23.612Z,14.03
2018-06-18T04:52:53.145Z,14.03
2018-06-18T04:55:22.789Z,13.43
2018-06-18T04:57:52.168Z,14.70
2018-06-18T05:00:28.512Z,14.53
2018-06-18T05:02:57.515Z,15.40
2018-06-18T05:05:26.605Z,16.43
2018-06-18T05:09:06.217Z,17.07
2018-06-18T05:11:35.941Z,16.33
2018-06-18T05:14:05.265Z,16.97
2018-06-18T05:16:34.384Z,16.93
2018-06-18T05:19:03.864Z,18.87
2018-06-18T05:21:32.786Z,18.37
2018-06-18T05:24:01.819Z,18.30
2018-06-18T05:26:31.437Z,17.10
2018-06-18T05:29:00.815Z,19.40
2018-06-18T05:31:30.866Z,17.33
2018-06-18T05:33:59.926Z,18.47
2018-06-18T05:36:29.643Z,18.30
2018-06-18T05:38:58.637Z,19.43
2018-06-18T05:41:27.977Z,18.13
2018-06-18T05:43:57.688Z,18.57
2018-06-18T05:46:27.208Z,19.37
2018-06-18T05:48:56.471Z,18.23
2018-06-18T05:51:25.993Z,18.40
2018-06-18T05:53:55.661Z,18.40
2018-06-18T05:56:25.913Z,19.30
2018-06-18T05:58:54.922Z,17.57
2018-06-18T06:01:23.949Z,18.20
2018-06-18T06:03:53.730Z,18.70
2018-06-18T06:06:23.309Z,17.57
2018-06-18T06:08:52.540Z,18.97
2018-06-18T06:11:21.896Z,17.30
2018-06-18T06:13:51.209Z,19.30
2018-06-18T06:16:20.427Z,18.07
2018-06-18T06:18:49.582Z,16.93
2018-06-18T06:21:18.455Z,18.43
2018-06-18T06:23:47.801Z,18.13
2018-06-18T06:26:16.629Z,18.23
2018-06-18T06:28:45.560Z,17.07
2018-06-18T06:31:14.523Z,17.93
2018-06-18T06:33:43.361Z,20.00
2018-06-18T06:36:13.255Z,18.17
2018-06-18T06:38:42.985Z,17.50
2018-06-18T06:41:12.755Z,17.60
2018-06-18T06:43:42.071Z,16.80
2018-06-18T06:46:10.913Z,17.50
2018-06-18T06:48:40.113Z,15.53
2018-06-18T06:51:09.831Z,17.40
2018-06-18T06:53:39.340Z,16.50
2018-06-18T06:56:08.642Z,15.47
2018-06-18T06:58:37.775Z,16.80
2018-06-18T07:01:07.310Z,15.70
2018-06-18T07:03:36.522Z,16.27
2018-06-18T07:06:05.866Z,15.97
2018-06-18T07:08:34.885Z,16.00
2018-06-18T07:11:03.862Z,14.60
2018-06-18T07:13:33.090Z,15.50
2018-06-18T07:16:02.406Z,14.80
2018-06-18T07:18:31.360Z,14.70
2018-06-18T07:21:00.601Z,15.00
2018-06-18T07:23:29.722Z,14.40
2018-06-18T07:25:59.266Z,15.00
2018-06-18T07:28:28.245Z,17.73
2018-06-18T07:30:57.997Z,13.30
2018-06-18T07:33:27.235Z,12.63
2018-06-18T07:35:56.622Z,13.80
2018-06-18T07:38:26.296Z,13.67
2018-06-18T07:40:55.428Z,13.97
2018-06-18T07:43:24.335Z,11.03
2018-06-18T07:45:53.702Z,13.17
2018-06-18T07:48:22.824Z,13.93
2018-06-18T07:50:51.680Z,14.10
2018-06-18T07:53:20.844Z,13.00
2018-06-18T07:55:49.992Z,12.37
2018-06-18T07:58:19.505Z,12.30
2018-06-18T08:00:48.419Z,14.00
2018-06-18T08:03:17.620Z,12.83
2018-06-18T08:05:46.594Z,11.63
2018-06-18T08:08:16.299Z,11.23
2018-06-18T08:10:46.077Z,12.03
2018-06-18T08:13:15.593Z,13.30
2018-06-18T08:15:44.570Z,11.90
2018-06-18T08:18:13.586Z,11.00
2018-06-18T08:20:43.429Z,12.33
2018-06-18T08:23:12.843Z,13.50
2018-06-18T08:25:42.245Z,11.50
2018-06-18T08:28:11.259Z,11.00
2018-06-18T08:30:40.531Z,11.07
2018-06-18T08:33:10.122Z,11.97
2018-06-18T08:35:39.334Z,11.77
2018-06-18T08:38:08.457Z,11.50
2018-06-18T08:40:38.002Z,11.10
2018-06-18T08:43:07.336Z,11.90
2018-06-18T08:45:36.794Z,12.63
2018-06-18T08:48:06.293Z,11.67
2018-06-18T08:50:40.411Z,11.07
2018-06-18T08:53:14.362Z,11.90
2018-06-18T08:55:48.970Z,12.13
2018-06-18T08:58:23.520Z,10.77
2018-06-18T09:00:57.833Z,11.00
2018-06-18T09:03:27.201Z,12.70
2018-06-18T09:06:01.767Z,11.13
2018-06-18T09:08:40.315Z,10.37
2018-06-18T09:11:09.638Z,9.73
2018-06-18T09:13:39.069Z,11.00
2018-06-18T09:16:08.724Z,10.40
2018-06-18T09:18:38.268Z,9.07
2018-06-18T09:21:08.043Z,9.60
2018-06-18T09:23:37.126Z,9.30
2018-06-18T09:26:06.413Z,8.47
2018-06-18T09:28:36.032Z,9.83
2018-06-18T09:31:05.356Z,8.80
2018-06-18T09:33:34.914Z,8.80
2018-06-18T09:36:04.538Z,7.33
2018-06-18T09:38:34.246Z,7.13
2018-06-18T09:41:03.456Z,8.23
2018-06-18T09:43:33.027Z,7.57
2018-06-18T09:46:01.975Z,7.00
2018-06-18T09:48:36.623Z,7.53
2018-06-18T09:51:11.115Z,6.20
2018-06-18T09:53:45.068Z,6.27
2018-06-18T09:56:19.324Z,6.30
2018-06-18T09:58:53.436Z,6.23
2018-06-18T10:01:27.725Z,6.70
2018-06-18T10:03:56.987Z,5.67
2018-06-18T10:06:26.967Z,6.40
2018-06-18T10:09:01.046Z,6.43
2018-06-18T10:11:30.491Z,5.00
2018-06-18T10:13:59.590Z,5.57
2018-06-18T10:16:28.621Z,5.37
2018-06-18T10:18:57.653Z,6.13
2018-06-18T10:21:26.726Z,4.80
2018-06-18T10:23:56.025Z,5.33
2018-06-18T10:26:25.781Z,5.67
2018-06-18T10:28:54.907Z,5.90
2018-06-18T10:31:24.464Z,5.33
2018-06-18T10:33:58.383Z,5.00
2018-06-18T10:36:32.860Z,4.70
2018-06-18T10:39:06.993Z,5.80
2018-06-18T10:41:40.942Z,5.40
2018-06-18T10:44:09.924Z,5.10
2018-06-18T10:46:39.040Z,5.07
2018-06-18T10:49:08.371Z,5.13
2018-06-18T10:51:38.097Z,5.73
2018-06-18T10:54:07.208Z,5.40
2018-06-18T10:56:36.010Z,5.20
2018-06-18T10:59:05.117Z,4.80
2018-06-18T11:01:34.529Z,5.70
2018-06-18T11:04:04.380Z,5.33
2018-06-18T11:06:33.857Z,4.90
2018-06-18T11:09:02.786Z,5.97
2018-06-18T11:11:31.800Z,5.33
2018-06-18T11:14:00.625Z,5.60
2018-06-18T11:16:29.908Z,6.67
2018-06-18T11:19:04.090Z,4.70
2018-06-18T11:21:38.531Z,6.17
2018-06-18T11:24:12.746Z,6.40
2018-06-18T11:26:46.575Z,7.00
2018-06-18T11:29:15.705Z,7.07
2018-06-18T11:31:44.571Z,7.50
2018-06-18T11:34:13.812Z,7.83
2018-06-18T11:36:42.653Z,6.83
2018-06-18T11:39:11.808Z,6.90
2018-06-18T11:41:40.665Z,7.50
2018-06-18T11:44:10.181Z,7.30
2018-06-18T11:46:39.841Z,8.77
2018-06-18T11:49:08.588Z,7.73
2018-06-18T11:51:37.791Z,9.20
2018-06-18T11:54:06.878Z,9.40
2018-06-18T11:56:36.044Z,8.73
2018-06-18T11:59:10.374Z,9.30
2018-06-18T12:01:44.215Z,9.20
2018-06-18T12:04:18.645Z,9.97
2018-06-18T12:06:52.612Z,10.20
2018-06-18T12:09:28.524Z,9.20
2018-06-18T12:11:57.768Z,9.33
2018-06-18T12:14:27.221Z,8.53
2018-06-18T12:16:56.527Z,9.87
2018-06-18T12:19:25.944Z,8.83
2018-06-18T12:21:55.361Z,9.50
2018-06-18T12:24:25.201Z,9.20
2018-06-18T12:26:54.184Z,8.57
2018-06-18T12:29:23.729Z,8.30
2018-06-18T12:31:53.403Z,8.37
2018-06-18T12:34:22.775Z,9.17
2018-06-18T12:36:52.216Z,9.33
2018-06-18T12:39:21.614Z,8.70
2018-06-18T12:41:57.922Z,9.13
2018-06-18T12:44:27.035Z,8.90
2018-06-18T12:47:01.856Z,7.60
2018-06-18T12:49:36.509Z,7.50
2018-06-18T12:52:11.063Z,7.53
2018-06-18T12:54:45.372Z,7.70
2018-06-18T12:57:14.780Z,8.77
2018-06-18T12:59:43.986Z,8.13
2018-06-18T13:02:22.084Z,7.57
2018-06-18T13:04:56.693Z,7.33
2018-06-18T13:07:26.624Z,7.30
2018-06-18T13:09:57.305Z,8.20
2018-06-18T13:12:26.723Z,7.40
2018-06-18T13:14:55.858Z,7.80
2018-06-18T13:17:25.190Z,6.57
2018-06-18T13:19:54.355Z,7.40
2018-06-18T13:22:23.660Z,7.07
2018-06-18T13:24:53.559Z,8.23
2018-06-18T13:27:26.524Z,7.00
2018-06-18T13:29:55.703Z,7.30
2018-06-18T13:32:25.128Z,6.57
2018-06-18T13:34:54.549Z,6.73
2018-06-18T13:37:28.579Z,6.37
2018-06-18T13:42:05.035Z,7.50
2018-06-18T13:44:39.170Z,8.70
2018-06-18T13:47:13.310Z,8.47
2018-06-18T13:49:48.118Z,9.17
2018-06-18T13:52:17.229Z,7.90
2018-06-18T13:54:46.628Z,8.53
2018-06-18T13:57:15.567Z,9.43
2018-06-18T13:59:44.928Z,10.37
2018-06-18T14:02:13.946Z,10.10
2018-06-18T14:04:43.304Z,10.07
2018-06-18T14:07:12.900Z,9.30
2018-06-18T14:09:41.930Z,9.77
2018-06-18T14:12:11.404Z,9.17
2018-06-18T14:14:40.663Z,10.10
2018-06-18T14:17:09.849Z,9.40
2018-06-18T14:19:43.791Z,10.40
2018-06-18T14:22:12.814Z,9.00
2018-06-18T14:24:42.082Z,10.53
2018-06-18T14:27:11.450Z,10.30
2018-06-18T14:29:45.903Z,10.80
2018-06-18T14:32:20.555Z,9.57
2018-06-18T14:34:54.692Z,11.43
2018-06-18T14:37:29.587Z,10.90
2018-06-18T14:40:03.983Z,8.97
2018-06-18T14:42:33.050Z,5.77
2018-06-18T14:45:02.033Z,5.00
2018-06-18T14:47:31.219Z,4.10
2018-06-18T14:50:00.558Z,4.10
2018-06-18T14:52:29.697Z,3.63
2018-06-18T14:54:59.136Z,4.57
2018-06-18T14:57:28.315Z,2.73
2018-06-18T15:00:04.207Z,1.57
2018-06-18T15:02:33.098Z,2.30
2018-06-18T15:05:01.964Z,2.20
2018-06-18T15:07:31.533Z,2.93
2018-06-18T15:10:00.354Z,3.20
2018-06-18T15:12:32.199Z,2.57
2018-06-18T15:15:06.248Z,3.70
2018-06-18T15:17:35.785Z,3.40
2018-06-18T15:20:05.342Z,3.60
2018-06-18T15:22:34.473Z,3.40
2018-06-18T15:25:06.923Z,3.87
2018-06-18T15:27:36.071Z,3.50
2018-06-18T15:30:05.276Z,4.00
2018-06-18T15:32:34.473Z,3.40
2018-06-18T15:35:11.649Z,3.43
2018-06-18T15:37:41.137Z,3.23
2018-06-18T15:40:10.477Z,4.50
2018-06-18T15:42:39.432Z,4.40
2018-06-18T15:45:15.622Z,4.00
2018-06-18T15:47:45.370Z,4.47
2018-06-18T15:50:14.373Z,4.30
2018-06-18T15:52:44.170Z,4.73
2018-06-18T15:55:13.760Z,5.17
2018-06-18T15:57:43.840Z,5.13
2018-06-18T16:00:12.780Z,5.57
2018-06-18T16:02:41.794Z,4.73
2018-06-18T16:05:11.042Z,5.83
2018-06-18T16:07:40.310Z,6.70
2018-06-18T16:10:09.332Z,6.23
2018-06-18T16:12:38.580Z,5.63
2018-06-18T16:15:07.475Z,4.90
2018-06-18T16:17:36.946Z,5.93
2018-06-18T16:20:06.481Z,6.70
2018-06-18T16:22:35.563Z,5.53
2018-06-18T16:25:04.969Z,6.10
2018-06-18T16:27:34.023Z,5.73
2018-06-18T16:30:03.123Z,4.70
2018-06-18T16:32:32.398Z,5.43
2018-06-18T16:35:01.496Z,7.40
2018-06-18T16:37:31.192Z,6.60
2018-06-18T16:40:00.031Z,5.87
2018-06-18T16:42:29.989Z,6.57
2018-06-18T16:44:59.835Z,7.50
2018-06-18T16:47:28.849Z,6.70
2018-06-18T16:49:58.333Z,7.33
2018-06-18T16:52:27.348Z,6.10
2018-06-18T16:54:56.312Z,7.13
2018-06-18T16:57:25.683Z,6.77
2018-06-18T16:59:55.087Z,6.33
2018-06-18T17:02:24.701Z,7.13
2018-06-18T17:04:53.604Z,5.60
2018-06-18T17:07:23.553Z,6.00
2018-06-18T17:09:52.819Z,7.07
2018-06-18T17:12:22.469Z,6.53
2018-06-18T17:14:52.714Z,6.60
2018-06-18T17:17:21.786Z,7.07
2018-06-18T17:19:51.083Z,6.83
2018-06-18T17:22:20.049Z,8.00
2018-06-18T17:24:50.069Z,7.40
2018-06-18T17:27:19.505Z,8.30
2018-06-18T17:30:01.902Z,6.70
2018-06-18T17:32:31.386Z,7.17
2018-06-18T17:35:01.198Z,6.80
2018-06-18T17:37:31.101Z,7.83
2018-06-18T17:40:00.524Z,6.53
2018-06-18T17:42:29.627Z,9.33
2018-06-18T17:44:58.531Z,8.00
2018-06-18T17:47:28.120Z,8.20
2018-06-18T17:49:57.201Z,7.80
2018-06-18T17:52:26.193Z,9.33
2018-06-18T17:54:56.296Z,8.23
2018-06-18T17:57:25.326Z,8.50
2018-06-18T17:59:54.649Z,10.10
2018-06-18T18:02:23.487Z,10.53
2018-06-18T18:04:56.977Z,8.60
2018-06-18T18:07:28.349Z,9.30
2018-06-18T18:09:57.302Z,9.13
2018-06-18T18:12:26.636Z,8.40
2018-06-18T18:14:55.952Z,8.93
2018-06-18T18:17:25.226Z,9.10
2018-06-18T18:19:54.147Z,11.00
2018-06-18T18:22:23.609Z,10.40
2018-06-18T18:24:52.504Z,9.27
2018-06-18T18:27:22.513Z,10.03
2018-06-18T18:29:52.137Z,9.63
2018-06-18T18:32:21.980Z,10.60
2018-06-18T18:34:51.772Z,11.13
2018-06-18T18:37:20.984Z,9.57
2018-06-18T18:39:50.453Z,9.53
2018-06-18T18:42:20.058Z,10.13
2018-06-18T18:44:49.210Z,9.53
2018-06-18T18:47:18.396Z,10.50
2018-06-18T18:49:47.266Z,9.27
2018-06-18T18:52:16.216Z,10.27
2018-06-18T18:56:01.619Z,11.60
2018-06-18T18:58:54.552Z,10.83
2018-06-18T19:01:24.169Z,10.80
2018-06-18T19:03:55.511Z,9.97
2018-06-18T19:06:24.536Z,10.53
2018-06-18T19:08:54.120Z,10.80
2018-06-18T19:11:23.294Z,9.40
2018-06-18T19:13:52.256Z,10.13
2018-06-18T19:16:21.803Z,9.50
2018-06-18T19:18:54.037Z,9.90
2018-06-18T19:21:23.141Z,10.93
2018-06-18T19:23:52.008Z,10.20
2018-06-18T19:26:21.246Z,11.20
2018-06-18T19:28:50.933Z,11.33
2018-06-18T19:31:22.557Z,10.27
2018-06-18T19:33:57.676Z,10.13
2018-06-18T19:36:27.185Z,10.07
2018-06-18T19:38:56.164Z,10.60
2018-06-18T19:41:25.482Z,10.97
2018-06-18T19:43:55.131Z,10.10
2018-06-18T19:46:30.596Z,8.40
2018-06-18T19:49:07.221Z,9.00
2018-06-18T19:51:36.638Z,8.90
2018-06-18T19:54:08.630Z,8.80
2018-06-18T19:56:37.978Z,8.33
2018-06-18T19:59:07.518Z,9.30
2018-06-18T20:01:36.648Z,8.07
2018-06-18T20:04:05.593Z,9.47
2018-06-18T20:06:35.583Z,8.33
2018-06-18T20:09:06.927Z,9.40
2018-06-18T20:11:36.481Z,8.53
2018-06-18T20:14:05.560Z,7.90
2018-06-18T20:16:35.106Z,8.10
2018-06-18T20:19:04.677Z,7.93
2018-06-18T20:21:33.685Z,8.73
2018-06-18T20:24:02.740Z,7.67
2018-06-18T20:26:31.803Z,7.77
2018-06-18T20:29:00.802Z,7.43
2018-06-18T20:31:29.906Z,7.30
2018-06-18T20:33:59.239Z,8.57
2018-06-18T20:36:28.407Z,7.40
2018-06-18T20:38:57.642Z,6.80
2018-06-18T20:41:27.201Z,7.60
2018-06-18T20:44:09.654Z,8.40
2018-06-18T20:46:39.309Z,8.50
2018-06-18T20:49:10.697Z,8.00
2018-06-18T20:51:39.790Z,8.70
2018-06-18T20:54:09.249Z,9.40
2018-06-18T20:56:38.477Z,8.80
2018-06-18T20:59:09.048Z,7.70
2018-06-18T21:01:38.374Z,8.10
2018-06-18T21:04:08.397Z,8.77
2018-06-18T21:06:37.734Z,9.60
2018-06-18T21:09:10.879Z,10.30
2018-06-18T21:11:40.578Z,10.27
2018-06-18T21:14:10.881Z,9.87
2018-06-18T21:16:42.796Z,9.57
2018-06-18T21:19:11.803Z,10.17
2018-06-18T21:21:41.216Z,10.57
2018-06-18T21:24:10.408Z,10.40
2018-06-18T21:26:39.447Z,10.33
2018-06-18T21:29:09.000Z,10.00
2018-06-18T21:31:38.255Z,11.60
2018-06-18T21:34:07.075Z,10.90
2018-06-18T21:36:36.766Z,11.20
2018-06-18T21:39:07.888Z,11.33
2018-06-18T21:41:37.506Z,11.90
2018-06-18T21:44:08.929Z,9.30
2018-06-18T21:46:38.362Z,12.10
2018-06-18T21:49:07.535Z,10.30
2018-06-18T21:51:36.970Z,11.30
2018-06-18T21:54:06.545Z,11.53
2018-06-18T21:56:35.914Z,10.27
2018-06-18T21:59:04.912Z,11.20
2018-06-18T22:01:44.858Z,10.47
2018-06-18T22:04:15.302Z,10.73
2018-06-18T22:06:45.232Z,10.70
2018-06-18T22:09:18.036Z,11.07
2018-06-18T22:11:52.117Z,12.27
2018-06-18T22:14:21.915Z,11.73
2018-06-18T22:16:51.167Z,12.10
2018-06-18T22:19:20.271Z,10.87
2018-06-18T22:21:49.801Z,12.30
2018-06-18T22:24:18.901Z,10.93
2018-06-18T22:26:48.132Z,12.80
2018-06-18T22:29:17.850Z,11.90
2018-06-18T22:31:47.256Z,13.30
2018-06-18T22:34:16.790Z,12.70
2018-06-18T22:36:45.692Z,12.70
2018-06-18T22:39:14.768Z,12.33
2018-06-18T22:41:44.295Z,13.87
2018-06-18T22:44:13.307Z,12.47
2018-06-18T22:46:42.451Z,12.60
2018-06-18T22:49:11.696Z,14.40
2018-06-18T22:51:41.795Z,12.90
2018-06-18T22:54:11.451Z,13.40
2018-06-18T22:56:40.810Z,15.00
2018-06-18T22:59:10.504Z,11.97
2018-06-18T23:01:40.650Z,15.27
2018-06-18T23:04:10.124Z,12.80
2018-06-18T23:06:39.403Z,13.37
2018-06-18T23:09:10.866Z,15.63
2018-06-18T23:11:40.472Z,16.27
2018-06-18T23:14:13.215Z,13.77
2018-06-18T23:16:42.893Z,15.17
2018-06-18T23:19:12.816Z,14.47
2018-06-18T23:21:42.585Z,15.20
2018-06-18T23:24:12.516Z,14.53
2018-06-18T23:26:42.916Z,14.70
2018-06-18T23:29:14.242Z,15.03
2018-06-18T23:31:44.333Z,13.87
2018-06-18T23:34:13.852Z,15.63
2018-06-18T23:36:42.757Z,15.07
2018-06-18T23:39:12.599Z,15.37
2018-06-18T23:41:46.243Z,16.20
2018-06-18T23:44:15.349Z,16.57
2018-06-18T23:46:44.646Z,15.70
2018-06-18T23:49:17.824Z,15.93
2018-06-18T23:51:46.933Z,16.13
2018-06-18T23:54:16.850Z,17.20
2018-06-18T23:56:46.292Z,16.80
2018-06-18T23:59:15.287Z,16.33
